FFM6402 WMSA-WIMM
Flight info
| Callsign | FFM6402 |
|---|---|
| Flight time | 0h 50m |
| Altitude | 14000 |
| Route | PUGER |
| Aircraft | AT76/M-SDFGIRY/S |
Departure
| Time | 2026-05-04 04:50 |
|---|---|
| Airport | Sultan Abdul Aziz Shah International Airport (WMSA) |
Arrival
| Time | 2026-05-04 05:40 |
|---|---|
| Airport | Kualanamu International Airport (WIMM) |
| Time | Latitude | Longitude | Altitude | Speed | Heading |
|---|---|---|---|---|---|
| 2026-05-04 04:33 | 3.13352 | 101.55159 | 85 ft | 0 kts | 134° |
| 2026-05-04 04:36 | 3.13354 | 101.55156 | 87 ft | 2 kts | 134° |
| 2026-05-04 04:37 | 3.13393 | 101.55136 | 88 ft | 1 kts | 262° |
| 2026-05-04 04:37 | 3.13394 | 101.55142 | 91 ft | 0 kts | 262° |
| 2026-05-04 04:44 | 3.13391 | 101.55120 | 85 ft | 2 kts | 264° |
| 2026-05-04 04:44 | 3.13389 | 101.55073 | 85 ft | 12 kts | 268° |
| 2026-05-04 04:44 | 3.13363 | 101.55017 | 86 ft | 8 kts | 218° |
| 2026-05-04 04:44 | 3.13266 | 101.55033 | 87 ft | 20 kts | 143° |
| 2026-05-04 04:45 | 3.13158 | 101.55110 | 87 ft | 18 kts | 149° |
| 2026-05-04 04:45 | 3.13054 | 101.55169 | 86 ft | 17 kts | 149° |
| 2026-05-04 04:45 | 3.12955 | 101.55228 | 87 ft | 16 kts | 150° |
| 2026-05-04 04:47 | 3.12477 | 101.55506 | 86 ft | 9 kts | 151° |
| 2026-05-04 04:47 | 3.12401 | 101.55548 | 86 ft | 8 kts | 156° |
| 2026-05-04 04:47 | 3.12355 | 101.55543 | 86 ft | 7 kts | 221° |
| 2026-05-04 04:47 | 3.12357 | 101.55460 | 88 ft | 12 kts | 304° |
| 2026-05-04 04:48 | 3.12396 | 101.55399 | 91 ft | 9 kts | 301° |
| 2026-05-04 04:49 | 3.12460 | 101.55292 | 87 ft | 0 kts | 326° |
| 2026-05-04 04:49 | 3.12558 | 101.55230 | 87 ft | 41 kts | 327° |
| 2026-05-04 04:49 | 3.12971 | 101.54980 | 87 ft | 96 kts | 328° |
| 2026-05-04 04:49 | 3.13672 | 101.54559 | 101 ft | 140 kts | 327° |
| 2026-05-04 04:50 | 3.14511 | 101.54024 | 536 ft | 144 kts | 319° |
| 2026-05-04 04:50 | 3.15151 | 101.53301 | 1005 ft | 136 kts | 309° |
| 2026-05-04 04:50 | 3.15686 | 101.52518 | 1317 ft | 136 kts | 301° |
| 2026-05-04 04:50 | 3.16162 | 101.51593 | 1240 ft | 171 kts | 287° |
| 2026-05-04 04:51 | 3.16701 | 101.50429 | 1098 ft | 198 kts | 307° |
| 2026-05-04 04:51 | 3.17405 | 101.49406 | 1890 ft | 170 kts | 288° |
| 2026-05-04 04:51 | 3.17300 | 101.48170 | 1037 ft | 233 kts | 229° |
| 2026-05-04 04:51 | 3.16060 | 101.47266 | 1908 ft | 191 kts | 216° |
| 2026-05-04 04:52 | 3.15099 | 101.46581 | 3207 ft | 156 kts | 214° |
| 2026-05-04 04:52 | 3.14128 | 101.45964 | 3439 ft | 180 kts | 213° |
| 2026-05-04 04:52 | 3.13064 | 101.45298 | 3741 ft | 192 kts | 212° |
| 2026-05-04 04:52 | 3.11665 | 101.44627 | 3489 ft | 231 kts | 202° |
| 2026-05-04 04:53 | 3.10276 | 101.44117 | 4427 ft | 202 kts | 208° |
| 2026-05-04 04:53 | 3.09408 | 101.43057 | 4973 ft | 201 kts | 255° |
| 2026-05-04 04:53 | 3.09523 | 101.41700 | 5514 ft | 200 kts | 297° |
| 2026-05-04 04:53 | 3.10519 | 101.40773 | 6063 ft | 200 kts | 339° |
| 2026-05-04 04:54 | 3.11889 | 101.40620 | 6609 ft | 199 kts | 0° |
| 2026-05-04 04:54 | 3.13271 | 101.40649 | 7152 ft | 198 kts | 2° |
| 2026-05-04 04:54 | 3.14653 | 101.40712 | 7696 ft | 199 kts | 3° |
| 2026-05-04 04:54 | 3.16033 | 101.40794 | 8236 ft | 199 kts | 4° |
| 2026-05-04 04:55 | 3.17418 | 101.40885 | 8786 ft | 200 kts | 4° |
| 2026-05-04 04:55 | 3.18808 | 101.40984 | 9337 ft | 200 kts | 4° |
| 2026-05-04 04:55 | 3.20198 | 101.41085 | 9881 ft | 201 kts | 4° |
| 2026-05-04 04:55 | 3.21579 | 101.41184 | 10374 ft | 201 kts | 5° |
| 2026-05-04 04:56 | 3.22973 | 101.41275 | 10875 ft | 201 kts | 5° |
| 2026-05-04 04:56 | 3.24376 | 101.41357 | 11390 ft | 202 kts | 5° |
| 2026-05-04 04:56 | 3.25782 | 101.41361 | 11893 ft | 204 kts | 349° |
| 2026-05-04 04:56 | 3.26971 | 101.40600 | 12359 ft | 207 kts | 309° |
| 2026-05-04 04:57 | 3.27740 | 101.39379 | 12849 ft | 209 kts | 296° |
| 2026-05-04 04:57 | 3.28239 | 101.38014 | 13330 ft | 206 kts | 288° |
| 2026-05-04 04:57 | 3.28633 | 101.36652 | 13691 ft | 202 kts | 286° |
| 2026-05-04 04:57 | 3.29069 | 101.35288 | 13803 ft | 208 kts | 297° |
| 2026-05-04 04:58 | 3.29839 | 101.34025 | 13895 ft | 217 kts | 307° |
| 2026-05-04 04:58 | 3.30775 | 101.32817 | 13944 ft | 228 kts | 311° |
| 2026-05-04 04:58 | 3.31823 | 101.31571 | 13968 ft | 233 kts | 312° |
| 2026-05-04 04:58 | 3.32873 | 101.30334 | 13978 ft | 239 kts | 312° |
| 2026-05-04 04:59 | 3.33692 | 101.28893 | 13989 ft | 243 kts | 284° |
| 2026-05-04 04:59 | 3.33889 | 101.27204 | 13986 ft | 246 kts | 273° |
| 2026-05-04 04:59 | 3.33930 | 101.25472 | 13989 ft | 250 kts | 271° |
| 2026-05-04 04:59 | 3.33957 | 101.23720 | 13960 ft | 254 kts | 272° |
| 2026-05-04 05:00 | 3.34022 | 101.21947 | 13944 ft | 257 kts | 274° |
| 2026-05-04 05:00 | 3.34131 | 101.20153 | 13939 ft | 259 kts | 274° |
| 2026-05-04 05:00 | 3.34337 | 101.17149 | 13930 ft | 261 kts | 274° |
| 2026-05-04 05:01 | 3.34455 | 101.15337 | 13932 ft | 261 kts | 274° |
| 2026-05-04 05:01 | 3.34572 | 101.13517 | 13933 ft | 262 kts | 274° |
| 2026-05-04 05:01 | 3.34727 | 101.11105 | 13935 ft | 262 kts | 274° |
| 2026-05-04 05:01 | 3.34807 | 101.09876 | 13932 ft | 262 kts | 274° |
| 2026-05-04 05:02 | 3.34961 | 101.07459 | 13934 ft | 263 kts | 274° |
| 2026-05-04 05:02 | 3.35040 | 101.06230 | 13932 ft | 263 kts | 274° |
| 2026-05-04 05:02 | 3.35157 | 101.04399 | 13936 ft | 263 kts | 274° |
| 2026-05-04 05:02 | 3.35272 | 101.02595 | 13936 ft | 263 kts | 274° |
| 2026-05-04 05:03 | 3.35389 | 101.00764 | 13935 ft | 263 kts | 274° |
| 2026-05-04 05:03 | 3.35507 | 100.98935 | 13938 ft | 263 kts | 274° |
| 2026-05-04 05:04 | 3.35858 | 100.93448 | 13940 ft | 263 kts | 274° |
| 2026-05-04 05:04 | 3.35975 | 100.91611 | 13936 ft | 263 kts | 274° |
| 2026-05-04 05:04 | 3.36092 | 100.89782 | 13935 ft | 263 kts | 274° |
| 2026-05-04 05:06 | 3.36908 | 100.76993 | 13935 ft | 264 kts | 274° |
| 2026-05-04 05:06 | 3.37025 | 100.75158 | 13936 ft | 264 kts | 274° |
| 2026-05-04 05:06 | 3.37141 | 100.73322 | 13938 ft | 264 kts | 274° |
| 2026-05-04 05:07 | 3.37258 | 100.71488 | 13931 ft | 264 kts | 274° |
| 2026-05-04 05:07 | 3.37374 | 100.69655 | 13929 ft | 264 kts | 274° |
| 2026-05-04 05:07 | 3.37491 | 100.67823 | 13934 ft | 264 kts | 274° |
| 2026-05-04 05:09 | 3.38023 | 100.59472 | 13931 ft | 264 kts | 274° |
| 2026-05-04 05:09 | 3.38139 | 100.57640 | 13934 ft | 264 kts | 274° |
| 2026-05-04 05:10 | 3.38256 | 100.55811 | 13935 ft | 264 kts | 274° |
| 2026-05-04 05:10 | 3.38372 | 100.53975 | 13931 ft | 264 kts | 274° |
| 2026-05-04 05:10 | 3.38490 | 100.52143 | 13932 ft | 264 kts | 274° |
| 2026-05-04 05:10 | 3.38606 | 100.50311 | 13932 ft | 264 kts | 274° |
| 2026-05-04 05:11 | 3.38722 | 100.48479 | 13938 ft | 264 kts | 274° |
| 2026-05-04 05:11 | 3.38839 | 100.46645 | 13936 ft | 264 kts | 274° |
| 2026-05-04 05:11 | 3.38954 | 100.44812 | 13938 ft | 264 kts | 274° |
| 2026-05-04 05:11 | 3.39069 | 100.43000 | 13937 ft | 264 kts | 274° |
| 2026-05-04 05:12 | 3.39185 | 100.41163 | 13933 ft | 264 kts | 274° |
| 2026-05-04 05:12 | 3.39301 | 100.39332 | 13933 ft | 264 kts | 274° |
| 2026-05-04 05:12 | 3.39418 | 100.37492 | 13933 ft | 264 kts | 274° |
| 2026-05-04 05:12 | 3.39534 | 100.35658 | 13933 ft | 264 kts | 274° |
| 2026-05-04 05:13 | 3.39651 | 100.33823 | 13931 ft | 264 kts | 274° |
| 2026-05-04 05:13 | 3.39767 | 100.31992 | 13931 ft | 264 kts | 274° |
| 2026-05-04 05:13 | 3.39878 | 100.30183 | 13933 ft | 264 kts | 274° |
| 2026-05-04 05:13 | 3.40037 | 100.28353 | 13934 ft | 264 kts | 277° |
| 2026-05-04 05:14 | 3.40269 | 100.26534 | 13932 ft | 264 kts | 279° |
| 2026-05-04 05:14 | 3.40535 | 100.24719 | 13930 ft | 264 kts | 279° |
| 2026-05-04 05:14 | 3.40786 | 100.22900 | 13933 ft | 264 kts | 278° |
| 2026-05-04 05:14 | 3.41032 | 100.21079 | 13932 ft | 264 kts | 278° |
| 2026-05-04 05:15 | 3.41277 | 100.19259 | 13931 ft | 264 kts | 278° |
| 2026-05-04 05:15 | 3.41521 | 100.17440 | 13933 ft | 264 kts | 278° |
| 2026-05-04 05:15 | 3.41766 | 100.15619 | 13932 ft | 264 kts | 278° |
| 2026-05-04 05:15 | 3.42010 | 100.13801 | 13936 ft | 264 kts | 278° |
| 2026-05-04 05:16 | 3.42255 | 100.11980 | 13927 ft | 264 kts | 278° |
| 2026-05-04 05:16 | 3.42499 | 100.10161 | 13931 ft | 264 kts | 278° |
| 2026-05-04 05:16 | 3.42739 | 100.08365 | 13930 ft | 264 kts | 278° |
| 2026-05-04 05:16 | 3.42983 | 100.06546 | 13931 ft | 264 kts | 278° |
| 2026-05-04 05:17 | 3.43228 | 100.04725 | 13932 ft | 264 kts | 278° |
| 2026-05-04 05:17 | 3.43472 | 100.02903 | 13931 ft | 264 kts | 278° |
| 2026-05-04 05:17 | 3.43716 | 100.01085 | 13933 ft | 264 kts | 278° |
| 2026-05-04 05:17 | 3.43959 | 99.99267 | 13930 ft | 264 kts | 278° |
| 2026-05-04 05:18 | 3.44204 | 99.97447 | 13929 ft | 264 kts | 278° |
| 2026-05-04 05:18 | 3.44447 | 99.95630 | 13933 ft | 264 kts | 278° |
| 2026-05-04 05:18 | 3.44691 | 99.93804 | 13930 ft | 264 kts | 278° |
| 2026-05-04 05:18 | 3.44935 | 99.91986 | 13930 ft | 264 kts | 278° |
| 2026-05-04 05:19 | 3.45179 | 99.90164 | 13926 ft | 264 kts | 278° |
| 2026-05-04 05:19 | 3.45423 | 99.88347 | 13930 ft | 264 kts | 278° |
| 2026-05-04 05:19 | 3.45667 | 99.86528 | 13930 ft | 264 kts | 278° |
| 2026-05-04 05:19 | 3.45907 | 99.84731 | 13933 ft | 264 kts | 278° |
| 2026-05-04 05:20 | 3.46151 | 99.82912 | 13932 ft | 264 kts | 278° |
| 2026-05-04 05:20 | 3.46394 | 99.81089 | 13936 ft | 264 kts | 278° |
| 2026-05-04 05:20 | 3.46639 | 99.79260 | 13931 ft | 264 kts | 278° |
| 2026-05-04 05:20 | 3.46883 | 99.77436 | 13928 ft | 264 kts | 278° |
| 2026-05-04 05:21 | 3.47126 | 99.75612 | 13929 ft | 264 kts | 278° |
| 2026-05-04 05:21 | 3.47371 | 99.73787 | 13928 ft | 264 kts | 278° |
| 2026-05-04 05:21 | 3.47615 | 99.71962 | 13931 ft | 264 kts | 278° |
| 2026-05-04 05:21 | 3.47859 | 99.70141 | 13931 ft | 264 kts | 278° |
| 2026-05-04 05:22 | 3.48100 | 99.68342 | 13932 ft | 264 kts | 278° |
| 2026-05-04 05:22 | 3.48345 | 99.66510 | 13819 ft | 269 kts | 278° |
| 2026-05-04 05:22 | 3.48600 | 99.64620 | 13541 ft | 276 kts | 278° |
| 2026-05-04 05:22 | 3.48859 | 99.62715 | 13260 ft | 276 kts | 278° |
| 2026-05-04 05:23 | 3.49107 | 99.60809 | 12982 ft | 275 kts | 278° |
| 2026-05-04 05:23 | 3.49362 | 99.58913 | 12710 ft | 274 kts | 278° |
| 2026-05-04 05:23 | 3.49612 | 99.57020 | 12437 ft | 274 kts | 278° |
| 2026-05-04 05:23 | 3.49865 | 99.55133 | 12166 ft | 273 kts | 277° |
| 2026-05-04 05:24 | 3.50116 | 99.53251 | 11896 ft | 272 kts | 278° |
| 2026-05-04 05:24 | 3.50363 | 99.51376 | 11630 ft | 271 kts | 278° |
| 2026-05-04 05:24 | 3.50609 | 99.49532 | 11369 ft | 259 kts | 278° |
| 2026-05-04 05:24 | 3.50836 | 99.47838 | 11111 ft | 239 kts | 277° |
| 2026-05-04 05:25 | 3.51050 | 99.46236 | 10845 ft | 226 kts | 278° |
| 2026-05-04 05:25 | 3.51252 | 99.44715 | 10585 ft | 215 kts | 278° |
| 2026-05-04 05:25 | 3.51445 | 99.43260 | 10364 ft | 205 kts | 278° |
| 2026-05-04 05:25 | 3.51629 | 99.41887 | 10245 ft | 193 kts | 277° |
| 2026-05-04 05:26 | 3.51805 | 99.40565 | 10135 ft | 190 kts | 277° |
| 2026-05-04 05:26 | 3.51979 | 99.39256 | 10024 ft | 189 kts | 277° |
| 2026-05-04 05:26 | 3.52151 | 99.37943 | 9912 ft | 192 kts | 277° |
| 2026-05-04 05:26 | 3.52328 | 99.36610 | 9799 ft | 194 kts | 277° |
| 2026-05-04 05:27 | 3.52504 | 99.35282 | 9680 ft | 196 kts | 277° |
| 2026-05-04 05:28 | 3.58362 | 99.28078 | 8814 ft | 201 kts | 316° |
| 2026-05-04 05:29 | 3.59368 | 99.27100 | 8698 ft | 202 kts | 316° |
| 2026-05-04 05:29 | 3.60373 | 99.26120 | 8567 ft | 202 kts | 316° |
| 2026-05-04 05:29 | 3.61383 | 99.25134 | 8443 ft | 203 kts | 316° |
| 2026-05-04 05:29 | 3.62391 | 99.24145 | 8320 ft | 203 kts | 315° |
| 2026-05-04 05:31 | 3.69081 | 99.17491 | 7048 ft | 199 kts | 315° |
| 2026-05-04 05:31 | 3.70046 | 99.16550 | 6836 ft | 189 kts | 316° |
| 2026-05-04 05:32 | 3.70969 | 99.15652 | 6623 ft | 181 kts | 315° |
| 2026-05-04 05:32 | 3.71862 | 99.14780 | 6413 ft | 179 kts | 315° |
| 2026-05-04 05:32 | 3.72753 | 99.13908 | 6199 ft | 179 kts | 315° |
| 2026-05-04 05:33 | 3.74513 | 99.12186 | 5759 ft | 177 kts | 315° |
| 2026-05-04 05:33 | 3.75397 | 99.11323 | 5573 ft | 177 kts | 315° |
| 2026-05-04 05:33 | 3.76275 | 99.10463 | 5381 ft | 176 kts | 315° |
| 2026-05-04 05:33 | 3.77150 | 99.09607 | 5134 ft | 176 kts | 315° |
| 2026-05-04 05:34 | 3.78024 | 99.08753 | 4889 ft | 175 kts | 315° |
| 2026-05-04 05:34 | 3.78889 | 99.07905 | 4657 ft | 174 kts | 314° |
| 2026-05-04 05:34 | 3.79753 | 99.07060 | 4405 ft | 174 kts | 315° |
| 2026-05-04 05:34 | 3.80609 | 99.06210 | 4159 ft | 173 kts | 311° |
| 2026-05-04 05:35 | 3.81185 | 99.05186 | 3952 ft | 170 kts | 275° |
| 2026-05-04 05:35 | 3.80844 | 99.04096 | 3793 ft | 166 kts | 235° |
| 2026-05-04 05:35 | 3.80109 | 99.03194 | 3623 ft | 168 kts | 228° |
| 2026-05-04 05:35 | 3.79289 | 99.02359 | 3447 ft | 169 kts | 224° |
| 2026-05-04 05:36 | 3.78427 | 99.01546 | 3222 ft | 169 kts | 224° |
| 2026-05-04 05:36 | 3.77568 | 99.00738 | 2978 ft | 170 kts | 224° |
| 2026-05-04 05:36 | 3.76706 | 98.99928 | 2733 ft | 169 kts | 224° |
| 2026-05-04 05:36 | 3.75867 | 98.99122 | 2499 ft | 169 kts | 225° |
| 2026-05-04 05:37 | 3.75027 | 98.98299 | 2251 ft | 169 kts | 226° |
| 2026-05-04 05:37 | 3.74205 | 98.97480 | 2102 ft | 163 kts | 226° |
| 2026-05-04 05:37 | 3.73422 | 98.96706 | 2030 ft | 152 kts | 226° |
| 2026-05-04 05:38 | 3.72035 | 98.95323 | 2004 ft | 140 kts | 226° |
| 2026-05-04 05:38 | 3.71295 | 98.94566 | 1785 ft | 162 kts | 228° |
| 2026-05-04 05:38 | 3.70484 | 98.93721 | 1569 ft | 179 kts | 227° |
| 2026-05-04 05:38 | 3.69554 | 98.92801 | 1332 ft | 190 kts | 225° |
| 2026-05-04 05:39 | 3.68670 | 98.91942 | 1094 ft | 189 kts | 225° |
| 2026-05-04 05:39 | 3.66966 | 98.90221 | 629 ft | 162 kts | 227° |
| 2026-05-04 05:39 | 3.66155 | 98.89405 | 405 ft | 167 kts | 225° |
| 2026-05-04 05:40 | 3.64659 | 98.87938 | 30 ft | 127 kts | 223° |
| 2026-05-04 05:40 | 3.64311 | 98.87593 | 27 ft | 43 kts | 224° |
| 2026-05-04 05:40 | 3.64185 | 98.87465 | 28 ft | 14 kts | 227° |
| 2026-05-04 05:41 | 3.64107 | 98.87400 | 27 ft | 5 kts | 184° |
| 2026-05-04 05:41 | 3.64091 | 98.87428 | 27 ft | 5 kts | 85° |
| 2026-05-04 05:41 | 3.64098 | 98.87459 | 41 ft | 4 kts | 74° |
| 2026-05-04 05:41 | 3.64104 | 98.87479 | 18 ft | 4 kts | 72° |
| 2026-05-04 05:42 | 3.64112 | 98.87520 | 28 ft | 12 kts | 92° |
| 2026-05-04 05:42 | 3.64056 | 98.87562 | 29 ft | 11 kts | 187° |
| 2026-05-04 05:42 | 3.63999 | 98.87526 | 29 ft | 9 kts | 223° |
| 2026-05-04 05:42 | 3.63957 | 98.87485 | 29 ft | 8 kts | 225° |
| 2026-05-04 05:43 | 3.63920 | 98.87449 | 29 ft | 7 kts | 225° |
| 2026-05-04 05:43 | 3.63879 | 98.87426 | 29 ft | 7 kts | 186° |
| 2026-05-04 05:43 | 3.63837 | 98.87450 | 29 ft | 8 kts | 121° |